sensor_id;sensor_type;location;lat;lon;timestamp;pressure;altitude;pressure_sealevel;temperature;humidity
12775;BME280;6451;42.630;23.382;2023-05-01T00:00:48;94342.63;;;17.60;84.10
12775;BME280;6451;42.630;23.382;2023-05-01T00:03:15;94332.50;;;17.71;82.74
12775;BME280;6451;42.630;23.382;2023-05-01T00:05:42;94342.28;;;17.76;82.07
12775;BME280;6451;42.630;23.382;2023-05-01T00:08:10;94341.91;;;17.74;81.46
12775;BME280;6451;42.630;23.382;2023-05-01T00:10:37;94342.25;;;17.69;80.57
12775;BME280;6451;42.630;23.382;2023-05-01T00:13:05;94343.81;;;17.63;81.22
12775;BME280;6451;42.630;23.382;2023-05-01T00:15:32;94352.50;;;17.72;81.54
12775;BME280;6451;42.630;23.382;2023-05-01T00:17:59;94346.97;;;17.68;82.16
12775;BME280;6451;42.630;23.382;2023-05-01T00:20:26;94348.13;;;17.60;81.85
12775;BME280;6451;42.630;23.382;2023-05-01T00:22:53;94342.63;;;17.60;80.56
12775;BME280;6451;42.630;23.382;2023-05-01T00:25:21;94343.81;;;17.66;81.55
12775;BME280;6451;42.630;23.382;2023-05-01T00:27:48;94350.88;;;17.60;82.28
12775;BME280;6451;42.630;23.382;2023-05-01T00:30:15;94345.41;;;17.64;81.04
12775;BME280;6451;42.630;23.382;2023-05-01T00:32:42;94333.63;;;17.42;80.66
12775;BME280;6451;42.630;23.382;2023-05-01T00:35:09;94342.22;;;17.44;81.91
12775;BME280;6451;42.630;23.382;2023-05-01T00:37:36;94352.03;;;17.45;82.31
12775;BME280;6451;42.630;23.382;2023-05-01T00:40:04;94362.59;;;17.43;82.81
12775;BME280;6451;42.630;23.382;2023-05-01T00:42:34;94363.78;;;17.35;83.16
12775;BME280;6451;42.630;23.382;2023-05-01T00:45:04;94358.19;;;16.99;84.61
12775;BME280;6451;42.630;23.382;2023-05-01T00:47:31;94367.22;;;17.10;83.95
12775;BME280;6451;42.630;23.382;2023-05-01T00:49:59;94357.41;;;17.06;83.26
12775;BME280;6451;42.630;23.382;2023-05-01T00:52:26;94341.31;;;16.90;83.84
12775;BME280;6451;42.630;23.382;2023-05-01T00:54:53;94365.91;;;16.72;85.28
12775;BME280;6451;42.630;23.382;2023-05-01T00:57:21;94361.69;;;16.96;84.49
12775;BME280;6451;42.630;23.382;2023-05-01T00:59:49;94369.56;;;17.05;84.47
12775;BME280;6451;42.630;23.382;2023-05-01T01:02:16;94365.72;;;17.27;83.40
12775;BME280;6451;42.630;23.382;2023-05-01T01:04:44;94335.81;;;16.86;84.47
12775;BME280;6451;42.630;23.382;2023-05-01T01:07:17;94376.25;;;17.11;84.52
12775;BME280;6451;42.630;23.382;2023-05-01T01:09:55;94376.16;;;16.89;84.14
12775;BME280;6451;42.630;23.382;2023-05-01T01:12:26;94378.34;;;16.59;84.65
12775;BME280;6451;42.630;23.382;2023-05-01T01:15:08;94382.59;;;16.49;84.98
12775;BME280;6451;42.630;23.382;2023-05-01T01:17:42;94382.28;;;16.03;87.45
12775;BME280;6451;42.630;23.382;2023-05-01T01:20:31;94388.47;;;15.96;89.76
12775;BME280;6451;42.630;23.382;2023-05-01T01:23:35;94384.47;;;16.38;88.23
12775;BME280;6451;42.630;23.382;2023-05-01T01:26:22;94379.75;;;16.35;87.86
12775;BME280;6451;42.630;23.382;2023-05-01T01:31:56;94395.16;;;16.02;89.56
12775;BME280;6451;42.630;23.382;2023-05-01T01:34:32;94401.78;;;16.01;89.27
12775;BME280;6451;42.630;23.382;2023-05-01T01:37:02;94389.31;;;15.60;90.75
12775;BME280;6451;42.630;23.382;2023-05-01T01:39:37;94388.38;;;15.45;92.17
12775;BME280;6451;42.630;23.382;2023-05-01T01:42:12;94398.78;;;15.66;91.54
12775;BME280;6451;42.630;23.382;2023-05-01T01:44:48;94377.00;;;15.80;90.04
12775;BME280;6451;42.630;23.382;2023-05-01T01:47:16;94396.69;;;16.00;89.11
12775;BME280;6451;42.630;23.382;2023-05-01T01:49:48;94394.63;;;15.86;89.95
12775;BME280;6451;42.630;23.382;2023-05-01T01:52:19;94376.63;;;15.81;88.87
12775;BME280;6451;42.630;23.382;2023-05-01T01:54:50;94391.31;;;15.63;90.45
12775;BME280;6451;42.630;23.382;2023-05-01T01:57:18;94318.47;;;15.07;90.70
12775;BME280;6451;42.630;23.382;2023-05-01T01:59:47;94388.34;;;15.04;93.83
12775;BME280;6451;42.630;23.382;2023-05-01T02:02:18;94321.16;;;14.66;93.91
12775;BME280;6451;42.630;23.382;2023-05-01T02:04:47;94381.78;;;15.12;94.36
12775;BME280;6451;42.630;23.382;2023-05-01T02:07:16;94378.19;;;15.05;94.22
12775;BME280;6451;42.630;23.382;2023-05-01T02:09:44;94383.22;;;15.40;92.96
12775;BME280;6451;42.630;23.382;2023-05-01T02:12:13;94375.78;;;15.37;92.82
12775;BME280;6451;42.630;23.382;2023-05-01T02:14:43;94374.56;;;15.30;92.21
12775;BME280;6451;42.630;23.382;2023-05-01T02:17:11;94359.38;;;15.37;91.11
12775;BME280;6451;42.630;23.382;2023-05-01T02:19:40;94380.81;;;15.72;89.18
12775;BME280;6451;42.630;23.382;2023-05-01T02:22:10;94355.28;;;15.16;91.03
12775;BME280;6451;42.630;23.382;2023-05-01T02:24:38;94367.34;;;15.52;89.70
12775;BME280;6451;42.630;23.382;2023-05-01T02:27:09;94378.22;;;15.45;90.43
12775;BME280;6451;42.630;23.382;2023-05-01T02:29:36;94377.56;;;15.59;89.98
12775;BME280;6451;42.630;23.382;2023-05-01T02:32:03;94383.66;;;15.42;91.20
12775;BME280;6451;42.630;23.382;2023-05-01T02:34:33;94378.53;;;15.37;91.13
12775;BME280;6451;42.630;23.382;2023-05-01T02:37:02;94381.59;;;15.32;91.27
12775;BME280;6451;42.630;23.382;2023-05-01T02:39:31;94374.47;;;15.23;92.64
12775;BME280;6451;42.630;23.382;2023-05-01T02:41:59;94315.50;;;14.85;92.14
12775;BME280;6451;42.630;23.382;2023-05-01T02:44:31;94377.28;;;15.30;91.48
12775;BME280;6451;42.630;23.382;2023-05-01T02:47:04;94372.38;;;15.10;92.44
12775;BME280;6451;42.630;23.382;2023-05-01T02:49:33;94377.16;;;14.83;93.96
12775;BME280;6451;42.630;23.382;2023-05-01T02:52:02;94381.44;;;14.84;94.52
12775;BME280;6451;42.630;23.382;2023-05-01T02:54:30;94378.44;;;14.92;94.59
12775;BME280;6451;42.630;23.382;2023-05-01T02:56:58;94385.59;;;15.04;95.58
12775;BME280;6451;42.630;23.382;2023-05-01T02:59:26;94376.19;;;15.35;92.70
12775;BME280;6451;42.630;23.382;2023-05-01T03:01:53;94378.84;;;15.32;94.02
12775;BME280;6451;42.630;23.382;2023-05-01T03:04:20;94358.00;;;15.16;92.90
12775;BME280;6451;42.630;23.382;2023-05-01T03:06:47;94386.38;;;15.05;93.88
12775;BME280;6451;42.630;23.382;2023-05-01T03:09:14;94383.38;;;15.13;94.11
12775;BME280;6451;42.630;23.382;2023-05-01T03:11:43;94375.41;;;15.01;93.68
12775;BME280;6451;42.630;23.382;2023-05-01T03:14:09;94397.31;;;15.05;93.86
12775;BME280;6451;42.630;23.382;2023-05-01T03:16:36;94378.25;;;14.78;94.62
12775;BME280;6451;42.630;23.382;2023-05-01T03:19:03;94404.06;;;14.81;95.14
12775;BME280;6451;42.630;23.382;2023-05-01T03:21:31;94404.69;;;13.91;98.22
12775;BME280;6451;42.630;23.382;2023-05-01T03:23:58;94409.47;;;13.98;98.53
12775;BME280;6451;42.630;23.382;2023-05-01T03:26:25;94403.53;;;13.92;99.18
12775;BME280;6451;42.630;23.382;2023-05-01T03:28:53;94408.69;;;13.97;99.95
12775;BME280;6451;42.630;23.382;2023-05-01T03:31:20;94411.47;;;13.78;100.00
12775;BME280;6451;42.630;23.382;2023-05-01T03:33:47;94412.63;;;14.00;100.00
12775;BME280;6451;42.630;23.382;2023-05-01T03:36:14;94407.44;;;14.17;100.00
12775;BME280;6451;42.630;23.382;2023-05-01T03:38:41;94410.56;;;13.93;100.00
12775;BME280;6451;42.630;23.382;2023-05-01T03:41:08;94388.72;;;13.67;100.00
12775;BME280;6451;42.630;23.382;2023-05-01T03:43:35;94422.22;;;14.16;100.00
12775;BME280;6451;42.630;23.382;2023-05-01T03:46:03;94422.91;;;14.10;100.00
12775;BME280;6451;42.630;23.382;2023-05-01T03:48:31;94429.09;;;14.33;100.00
12775;BME280;6451;42.630;23.382;2023-05-01T03:50:58;94432.44;;;14.19;100.00
12775;BME280;6451;42.630;23.382;2023-05-01T03:53:25;94427.22;;;14.37;100.00
12775;BME280;6451;42.630;23.382;2023-05-01T03:55:51;94427.28;;;14.14;100.00
12775;BME280;6451;42.630;23.382;2023-05-01T03:58:18;94424.38;;;14.53;100.00
12775;BME280;6451;42.630;23.382;2023-05-01T04:00:46;94424.09;;;14.62;99.05
12775;BME280;6451;42.630;23.382;2023-05-01T04:03:15;94448.38;;;14.70;98.52
12775;BME280;6451;42.630;23.382;2023-05-01T04:05:42;94435.41;;;14.90;96.74
12775;BME280;6451;42.630;23.382;2023-05-01T04:08:09;94419.38;;;14.59;96.68
12775;BME280;6451;42.630;23.382;2023-05-01T04:10:35;94416.41;;;14.71;96.18
12775;BME280;6451;42.630;23.382;2023-05-01T04:13:02;94416.59;;;14.85;94.38
12775;BME280;6451;42.630;23.382;2023-05-01T04:15:29;94427.19;;;14.90;93.92
12775;BME280;6451;42.630;23.382;2023-05-01T04:17:56;94439.59;;;15.14;92.49
12775;BME280;6451;42.630;23.382;2023-05-01T04:20:25;94425.75;;;15.00;93.57
12775;BME280;6451;42.630;23.382;2023-05-01T04:22:52;94441.72;;;15.28;92.15
12775;BME280;6451;42.630;23.382;2023-05-01T04:25:19;94433.38;;;15.17;91.02
12775;BME280;6451;42.630;23.382;2023-05-01T04:27:46;94438.44;;;15.15;91.26
12775;BME280;6451;42.630;23.382;2023-05-01T04:30:13;94445.63;;;15.30;91.05
12775;BME280;6451;42.630;23.382;2023-05-01T04:32:40;94438.53;;;15.97;87.79
12775;BME280;6451;42.630;23.382;2023-05-01T04:35:07;94429.53;;;15.96;88.13
12775;BME280;6451;42.630;23.382;2023-05-01T04:37:36;94433.16;;;15.67;89.64
12775;BME280;6451;42.630;23.382;2023-05-01T04:40:03;94436.94;;;16.44;87.60
12775;BME280;6451;42.630;23.382;2023-05-01T04:42:30;94438.00;;;16.83;85.17
12775;BME280;6451;42.630;23.382;2023-05-01T04:44:57;94446.50;;;16.16;86.79
12775;BME280;6451;42.630;23.382;2023-05-01T04:47:27;94451.25;;;15.78;88.23
12775;BME280;6451;42.630;23.382;2023-05-01T04:49:53;94434.38;;;16.17;87.81
12775;BME280;6451;42.630;23.382;2023-05-01T04:52:20;94444.38;;;16.47;84.90
12775;BME280;6451;42.630;23.382;2023-05-01T04:54:49;94440.75;;;16.87;84.86
12775;BME280;6451;42.630;23.382;2023-05-01T04:57:16;94453.16;;;16.70;83.37
12775;BME280;6451;42.630;23.382;2023-05-01T04:59:43;94452.63;;;16.50;86.14
12775;BME280;6451;42.630;23.382;2023-05-01T05:02:10;94448.72;;;17.17;84.01
12775;BME280;6451;42.630;23.382;2023-05-01T05:04:37;94455.06;;;17.35;82.47
12775;BME280;6451;42.630;23.382;2023-05-01T05:07:04;94455.00;;;17.24;81.14
12775;BME280;6451;42.630;23.382;2023-05-01T05:09:31;94466.22;;;16.91;83.27
12775;BME280;6451;42.630;23.382;2023-05-01T05:11:59;94469.19;;;17.37;83.70
12775;BME280;6451;42.630;23.382;2023-05-01T05:14:28;94466.81;;;17.36;82.67
12775;BME280;6451;42.630;23.382;2023-05-01T05:16:55;94473.56;;;17.63;81.06
12775;BME280;6451;42.630;23.382;2023-05-01T05:19:21;94444.56;;;17.69;80.92
12775;BME280;6451;42.630;23.382;2023-05-01T05:21:48;94468.34;;;17.30;82.35
12775;BME280;6451;42.630;23.382;2023-05-01T05:24:15;94474.38;;;17.64;80.93
12775;BME280;6451;42.630;23.382;2023-05-01T05:26:42;94479.78;;;17.42;82.25
12775;BME280;6451;42.630;23.382;2023-05-01T05:29:11;94473.31;;;18.04;81.07
12775;BME280;6451;42.630;23.382;2023-05-01T05:31:38;94486.28;;;18.28;79.91
12775;BME280;6451;42.630;23.382;2023-05-01T05:34:05;94484.72;;;18.49;80.03
12775;BME280;6451;42.630;23.382;2023-05-01T05:36:32;94480.38;;;18.55;78.55
12775;BME280;6451;42.630;23.382;2023-05-01T05:39:00;94488.63;;;18.44;79.30
12775;BME280;6451;42.630;23.382;2023-05-01T05:41:27;94482.75;;;18.64;78.67
12775;BME280;6451;42.630;23.382;2023-05-01T05:43:54;94492.97;;;18.74;79.05
12775;BME280;6451;42.630;23.382;2023-05-01T05:46:22;94481.16;;;18.30;81.63
12775;BME280;6451;42.630;23.382;2023-05-01T05:48:50;94481.94;;;18.63;79.97
12775;BME280;6451;42.630;23.382;2023-05-01T05:51:17;94493.69;;;19.13;77.82
12775;BME280;6451;42.630;23.382;2023-05-01T05:53:44;94497.97;;;19.32;76.70
12775;BME280;6451;42.630;23.382;2023-05-01T05:56:11;94499.94;;;19.28;77.53
12775;BME280;6451;42.630;23.382;2023-05-01T05:58:37;94496.31;;;19.49;76.49
12775;BME280;6451;42.630;23.382;2023-05-01T06:01:04;94506.50;;;19.66;75.17
12775;BME280;6451;42.630;23.382;2023-05-01T06:03:35;94501.13;;;19.20;77.45
12775;BME280;6451;42.630;23.382;2023-05-01T06:06:02;94502.72;;;19.25;78.11
12775;BME280;6451;42.630;23.382;2023-05-01T06:08:29;94500.75;;;19.07;78.80
12775;BME280;6451;42.630;23.382;2023-05-01T06:10:56;94507.47;;;19.03;79.13
12775;BME280;6451;42.630;23.382;2023-05-01T06:13:23;94491.25;;;19.40;78.03
12775;BME280;6451;42.630;23.382;2023-05-01T06:15:51;94507.47;;;19.10;79.01
12775;BME280;6451;42.630;23.382;2023-05-01T06:18:18;94514.50;;;19.18;79.62
12775;BME280;6451;42.630;23.382;2023-05-01T06:20:46;94508.59;;;19.16;79.49
12775;BME280;6451;42.630;23.382;2023-05-01T06:23:13;94523.88;;;19.31;79.20
12775;BME280;6451;42.630;23.382;2023-05-01T06:25:40;94515.63;;;19.38;79.11
12775;BME280;6451;42.630;23.382;2023-05-01T06:28:07;94502.47;;;19.85;77.41
12775;BME280;6451;42.630;23.382;2023-05-01T06:30:34;94513.31;;;20.17;76.32
12775;BME280;6451;42.630;23.382;2023-05-01T06:33:01;94514.63;;;19.95;77.21
12775;BME280;6451;42.630;23.382;2023-05-01T06:35:28;94514.81;;;20.33;74.96
12775;BME280;6451;42.630;23.382;2023-05-01T06:37:56;94504.59;;;20.26;75.56
12775;BME280;6451;42.630;23.382;2023-05-01T06:40:24;94511.16;;;19.77;77.25
12775;BME280;6451;42.630;23.382;2023-05-01T06:42:51;94512.56;;;20.13;76.21
12775;BME280;6451;42.630;23.382;2023-05-01T06:45:18;94476.13;;;20.43;73.87
12775;BME280;6451;42.630;23.382;2023-05-01T06:47:45;94520.66;;;20.38;73.99
12775;BME280;6451;42.630;23.382;2023-05-01T06:50:12;94513.47;;;21.00;72.22
12775;BME280;6451;42.630;23.382;2023-05-01T06:52:40;94504.69;;;20.12;73.32
12775;BME280;6451;42.630;23.382;2023-05-01T06:55:09;94486.00;;;20.37;73.53
12775;BME280;6451;42.630;23.382;2023-05-01T06:57:37;94504.34;;;20.62;72.90
12775;BME280;6451;42.630;23.382;2023-05-01T07:00:05;94508.53;;;21.22;71.00
12775;BME280;6451;42.630;23.382;2023-05-01T07:02:32;94508.19;;;21.57;69.81
12775;BME280;6451;42.630;23.382;2023-05-01T07:05:01;94511.19;;;20.95;70.54
12775;BME280;6451;42.630;23.382;2023-05-01T07:07:28;94515.34;;;21.51;69.19
12775;BME280;6451;42.630;23.382;2023-05-01T07:09:55;94510.50;;;21.25;69.68
12775;BME280;6451;42.630;23.382;2023-05-01T07:12:24;94508.06;;;21.34;69.78
12775;BME280;6451;42.630;23.382;2023-05-01T07:14:51;94517.13;;;21.31;68.98
12775;BME280;6451;42.630;23.382;2023-05-01T07:17:18;94511.44;;;21.49;68.40
12775;BME280;6451;42.630;23.382;2023-05-01T07:19:44;94519.16;;;21.61;68.19
12775;BME280;6451;42.630;23.382;2023-05-01T07:22:11;94513.72;;;20.75;70.03
12775;BME280;6451;42.630;23.382;2023-05-01T07:24:38;94523.09;;;21.63;66.81
12775;BME280;6451;42.630;23.382;2023-05-01T07:27:05;94531.47;;;21.15;67.35
12775;BME280;6451;42.630;23.382;2023-05-01T07:29:34;94529.03;;;21.24;68.94
12775;BME280;6451;42.630;23.382;2023-05-01T07:32:01;94519.25;;;21.54;67.44
12775;BME280;6451;42.630;23.382;2023-05-01T07:34:30;94518.88;;;21.14;68.71
12775;BME280;6451;42.630;23.382;2023-05-01T07:36:57;94520.28;;;21.67;67.06
12775;BME280;6451;42.630;23.382;2023-05-01T07:39:25;94524.25;;;21.97;65.26
12775;BME280;6451;42.630;23.382;2023-05-01T07:41:52;94517.59;;;21.60;65.74
12775;BME280;6451;42.630;23.382;2023-05-01T07:44:18;94512.75;;;22.02;63.94
12775;BME280;6451;42.630;23.382;2023-05-01T07:46:47;94529.31;;;21.37;67.03
12775;BME280;6451;42.630;23.382;2023-05-01T07:49:14;94527.38;;;21.68;67.54
12775;BME280;6451;42.630;23.382;2023-05-01T07:51:41;94522.81;;;22.19;66.11
12775;BME280;6451;42.630;23.382;2023-05-01T07:54:08;94518.66;;;22.34;64.69
12775;BME280;6451;42.630;23.382;2023-05-01T07:56:35;94529.13;;;22.46;63.09
12775;BME280;6451;42.630;23.382;2023-05-01T07:59:02;94523.97;;;22.48;62.30
12775;BME280;6451;42.630;23.382;2023-05-01T08:01:29;94504.28;;;21.55;62.33
12775;BME280;6451;42.630;23.382;2023-05-01T08:03:58;94519.72;;;22.13;61.87
12775;BME280;6451;42.630;23.382;2023-05-01T08:06:25;94521.53;;;22.24;63.28
12775;BME280;6451;42.630;23.382;2023-05-01T08:08:52;94526.09;;;22.10;64.15
12775;BME280;6451;42.630;23.382;2023-05-01T08:11:20;94530.63;;;21.59;65.25
12775;BME280;6451;42.630;23.382;2023-05-01T08:13:47;94513.31;;;21.89;65.12
12775;BME280;6451;42.630;23.382;2023-05-01T08:16:14;94525.34;;;22.60;63.82
12775;BME280;6451;42.630;23.382;2023-05-01T08:18:41;94506.91;;;21.96;65.83
12775;BME280;6451;42.630;23.382;2023-05-01T08:21:09;94517.91;;;22.57;65.15
12775;BME280;6451;42.630;23.382;2023-05-01T08:23:36;94523.56;;;22.73;63.33
12775;BME280;6451;42.630;23.382;2023-05-01T08:26:03;94525.34;;;23.11;61.23
12775;BME280;6451;42.630;23.382;2023-05-01T08:28:31;94523.59;;;22.97;60.08
12775;BME280;6451;42.630;23.382;2023-05-01T08:30:58;94520.63;;;22.34;58.77
12775;BME280;6451;42.630;23.382;2023-05-01T08:33:25;94518.53;;;22.92;58.35
12775;BME280;6451;42.630;23.382;2023-05-01T08:35:52;94520.13;;;22.39;60.12
12775;BME280;6451;42.630;23.382;2023-05-01T08:38:20;94529.53;;;22.45;59.14
12775;BME280;6451;42.630;23.382;2023-05-01T08:40:50;94521.22;;;22.72;52.88
12775;BME280;6451;42.630;23.382;2023-05-01T08:43:18;94521.84;;;22.33;55.76
12775;BME280;6451;42.630;23.382;2023-05-01T08:45:46;94492.81;;;22.44;57.53
12775;BME280;6451;42.630;23.382;2023-05-01T08:48:15;94516.38;;;22.80;56.63
12775;BME280;6451;42.630;23.382;2023-05-01T08:50:45;94516.09;;;22.97;56.13
12775;BME280;6451;42.630;23.382;2023-05-01T08:53:14;94508.06;;;22.80;56.80
12775;BME280;6451;42.630;23.382;2023-05-01T08:55:44;94513.13;;;23.51;55.80
12775;BME280;6451;42.630;23.382;2023-05-01T08:58:13;94507.22;;;23.06;54.97
12775;BME280;6451;42.630;23.382;2023-05-01T09:00:40;94490.03;;;22.71;54.64
12775;BME280;6451;42.630;23.382;2023-05-01T09:03:10;94505.22;;;22.87;55.11
12775;BME280;6451;42.630;23.382;2023-05-01T09:05:37;94505.25;;;23.07;56.48
12775;BME280;6451;42.630;23.382;2023-05-01T09:08:04;94495.22;;;22.93;54.82
12775;BME280;6451;42.630;23.382;2023-05-01T09:10:32;94506.50;;;23.25;53.70
12775;BME280;6451;42.630;23.382;2023-05-01T09:13:01;94505.59;;;23.32;54.16
12775;BME280;6451;42.630;23.382;2023-05-01T09:15:31;94504.28;;;23.17;54.16
12775;BME280;6451;42.630;23.382;2023-05-01T09:17:59;94461.03;;;23.03;52.93
12775;BME280;6451;42.630;23.382;2023-05-01T09:20:27;94504.44;;;23.29;52.97
12775;BME280;6451;42.630;23.382;2023-05-01T09:22:54;94504.09;;;23.27;52.31
12775;BME280;6451;42.630;23.382;2023-05-01T09:25:22;94510.19;;;22.45;53.31
12775;BME280;6451;42.630;23.382;2023-05-01T09:27:50;94502.25;;;23.41;53.03
12775;BME280;6451;42.630;23.382;2023-05-01T09:30:34;94498.59;;;23.47;51.86
12775;BME280;6451;42.630;23.382;2023-05-01T09:33:08;94513.72;;;23.82;52.15
12775;BME280;6451;42.630;23.382;2023-05-01T09:35:50;94495.94;;;22.97;52.21
12775;BME280;6451;42.630;23.382;2023-05-01T09:38:18;94507.66;;;23.48;51.27
12775;BME280;6451;42.630;23.382;2023-05-01T09:40:46;94508.41;;;23.09;53.17
12775;BME280;6451;42.630;23.382;2023-05-01T09:43:13;94507.34;;;23.85;50.66
12775;BME280;6451;42.630;23.382;2023-05-01T09:45:58;94501.56;;;23.76;52.50
12775;BME280;6451;42.630;23.382;2023-05-01T09:48:25;94510.22;;;23.39;52.79
12775;BME280;6451;42.630;23.382;2023-05-01T09:50:52;94510.16;;;24.02;51.90
12775;BME280;6451;42.630;23.382;2023-05-01T09:53:32;94509.59;;;23.51;50.79
12775;BME280;6451;42.630;23.382;2023-05-01T09:56:02;94494.91;;;23.11;51.87
12775;BME280;6451;42.630;23.382;2023-05-01T09:58:29;94485.97;;;23.86;50.08
12775;BME280;6451;42.630;23.382;2023-05-01T10:00:57;94461.50;;;23.61;50.92
12775;BME280;6451;42.630;23.382;2023-05-01T10:03:24;94494.38;;;23.59;48.32
12775;BME280;6451;42.630;23.382;2023-05-01T10:05:51;94495.91;;;23.64;49.45
12775;BME280;6451;42.630;23.382;2023-05-01T10:08:21;94494.50;;;22.89;48.45
12775;BME280;6451;42.630;23.382;2023-05-01T10:10:59;94492.34;;;23.83;46.58
12775;BME280;6451;42.630;23.382;2023-05-01T10:13:28;94451.22;;;23.62;45.17
12775;BME280;6451;42.630;23.382;2023-05-01T10:15:57;94496.31;;;23.82;45.46
12775;BME280;6451;42.630;23.382;2023-05-01T10:18:26;94482.81;;;24.20;44.87
12775;BME280;6451;42.630;23.382;2023-05-01T10:20:53;94485.38;;;24.31;46.08
12775;BME280;6451;42.630;23.382;2023-05-01T10:23:20;94487.84;;;24.09;45.36
12775;BME280;6451;42.630;23.382;2023-05-01T10:25:51;94473.28;;;24.21;43.40
12775;BME280;6451;42.630;23.382;2023-05-01T10:28:19;94475.78;;;24.35;44.25
12775;BME280;6451;42.630;23.382;2023-05-01T10:30:47;94481.78;;;24.50;44.06
12775;BME280;6451;42.630;23.382;2023-05-01T10:33:16;94466.88;;;24.08;45.00
12775;BME280;6451;42.630;23.382;2023-05-01T10:35:47;94476.28;;;23.94;44.38
12775;BME280;6451;42.630;23.382;2023-05-01T10:38:21;94478.22;;;24.33;42.76
12775;BME280;6451;42.630;23.382;2023-05-01T10:40:49;94488.59;;;24.46;39.69
12775;BME280;6451;42.630;23.382;2023-05-01T10:43:18;94486.28;;;24.60;41.81
12775;BME280;6451;42.630;23.382;2023-05-01T10:45:51;94481.50;;;24.93;42.96
12775;BME280;6451;42.630;23.382;2023-05-01T10:51:30;94464.03;;;25.26;41.52
12775;BME280;6451;42.630;23.382;2023-05-01T10:54:21;94459.78;;;25.21;45.88
12775;BME280;6451;42.630;23.382;2023-05-01T10:56:49;94471.28;;;25.65;45.46
12775;BME280;6451;42.630;23.382;2023-05-01T10:59:16;94474.38;;;25.54;45.07
12775;BME280;6451;42.630;23.382;2023-05-01T11:01:43;94484.44;;;25.03;45.31
12775;BME280;6451;42.630;23.382;2023-05-01T11:04:49;94486.38;;;25.06;44.01
12775;BME280;6451;42.630;23.382;2023-05-01T11:07:22;94477.44;;;25.43;43.51
12775;BME280;6451;42.630;23.382;2023-05-01T11:09:50;94469.03;;;25.89;42.79
12775;BME280;6451;42.630;23.382;2023-05-01T11:12:48;94473.78;;;25.01;44.21
12775;BME280;6451;42.630;23.382;2023-05-01T11:15:26;94481.31;;;24.84;44.70
12775;BME280;6451;42.630;23.382;2023-05-01T11:17:54;94488.38;;;24.56;45.09
12775;BME280;6451;42.630;23.382;2023-05-01T11:20:45;94478.72;;;24.61;44.83
12775;BME280;6451;42.630;23.382;2023-05-01T11:23:18;94476.75;;;24.78;45.26
12775;BME280;6451;42.630;23.382;2023-05-01T11:25:46;94482.03;;;24.72;46.00
12775;BME280;6451;42.630;23.382;2023-05-01T11:28:18;94489.50;;;24.59;47.27
12775;BME280;6451;42.630;23.382;2023-05-01T11:30:47;94479.16;;;24.59;45.46
12775;BME280;6451;42.630;23.382;2023-05-01T11:33:21;94487.31;;;24.14;47.30
12775;BME280;6451;42.630;23.382;2023-05-01T11:35:58;94493.63;;;24.34;46.96
12775;BME280;6451;42.630;23.382;2023-05-01T11:38:28;94482.47;;;24.87;46.53
12775;BME280;6451;42.630;23.382;2023-05-01T11:40:58;94481.59;;;24.21;46.33
12775;BME280;6451;42.630;23.382;2023-05-01T11:43:26;94466.28;;;24.17;45.62
12775;BME280;6451;42.630;23.382;2023-05-01T11:45:53;94486.03;;;24.19;46.14
12775;BME280;6451;42.630;23.382;2023-05-01T11:48:27;94467.34;;;23.67;44.98
12775;BME280;6451;42.630;23.382;2023-05-01T11:50:54;94493.09;;;24.03;44.30
12775;BME280;6451;42.630;23.382;2023-05-01T11:53:21;94481.44;;;24.48;44.46
12775;BME280;6451;42.630;23.382;2023-05-01T11:55:50;94492.97;;;24.47;43.75
12775;BME280;6451;42.630;23.382;2023-05-01T11:58:17;94481.44;;;23.92;43.43
12775;BME280;6451;42.630;23.382;2023-05-01T12:00:43;94487.63;;;24.00;42.98
12775;BME280;6451;42.630;23.382;2023-05-01T12:03:12;94491.69;;;23.75;41.91
12775;BME280;6451;42.630;23.382;2023-05-01T12:05:42;94504.97;;;24.04;42.23
12775;BME280;6451;42.630;23.382;2023-05-01T12:08:12;94505.19;;;24.29;42.35
12775;BME280;6451;42.630;23.382;2023-05-01T12:10:41;94509.13;;;24.32;42.77
12775;BME280;6451;42.630;23.382;2023-05-01T12:13:11;94504.22;;;24.39;42.88
12775;BME280;6451;42.630;23.382;2023-05-01T12:15:40;94504.94;;;24.24;44.03
12775;BME280;6451;42.630;23.382;2023-05-01T12:18:08;94494.53;;;24.96;43.71
12775;BME280;6451;42.630;23.382;2023-05-01T12:20:36;94453.56;;;25.01;42.27
12775;BME280;6451;42.630;23.382;2023-05-01T12:23:03;94502.59;;;25.52;41.71
12775;BME280;6451;42.630;23.382;2023-05-01T12:25:34;94492.38;;;26.33;39.90
12775;BME280;6451;42.630;23.382;2023-05-01T12:28:03;94499.34;;;25.70;40.78
12775;BME280;6451;42.630;23.382;2023-05-01T12:30:36;94498.41;;;25.90;39.96
12775;BME280;6451;42.630;23.382;2023-05-01T12:33:07;94496.81;;;26.30;40.16
12775;BME280;6451;42.630;23.382;2023-05-01T12:35:35;94506.78;;;25.44;43.43
12775;BME280;6451;42.630;23.382;2023-05-01T12:38:09;94498.03;;;25.75;43.31
12775;BME280;6451;42.630;23.382;2023-05-01T12:40:37;94494.56;;;26.13;40.26
12775;BME280;6451;42.630;23.382;2023-05-01T12:43:05;94462.69;;;25.46;40.88
12775;BME280;6451;42.630;23.382;2023-05-01T12:45:43;94494.97;;;25.98;41.09
12775;BME280;6451;42.630;23.382;2023-05-01T12:48:13;94503.75;;;25.84;40.70
12775;BME280;6451;42.630;23.382;2023-05-01T12:50:41;94495.13;;;26.20;41.03
12775;BME280;6451;42.630;23.382;2023-05-01T12:53:08;94502.66;;;25.65;40.82
12775;BME280;6451;42.630;23.382;2023-05-01T12:55:46;94495.38;;;25.71;40.50
12775;BME280;6451;42.630;23.382;2023-05-01T12:58:13;94503.03;;;24.89;42.56
12775;BME280;6451;42.630;23.382;2023-05-01T13:00:44;94502.63;;;25.36;42.78
12775;BME280;6451;42.630;23.382;2023-05-01T13:03:12;94504.06;;;24.95;43.58
12775;BME280;6451;42.630;23.382;2023-05-01T13:05:52;94498.53;;;24.79;42.63
12775;BME280;6451;42.630;23.382;2023-05-01T13:08:26;94490.53;;;24.65;42.15
12775;BME280;6451;42.630;23.382;2023-05-01T13:10:55;94492.78;;;25.03;42.75
12775;BME280;6451;42.630;23.382;2023-05-01T13:13:26;94496.25;;;25.07;43.03
12775;BME280;6451;42.630;23.382;2023-05-01T13:16:04;94503.38;;;25.24;43.51